Time;durP1;ratioP1;P1;durP2;ratioP2;P2;SDS_P1;SDS_P2;PMS_P1;PMS_P2;Temp;Humidity;BMP_temperature;BMP_pressure;BME280_temperature;BME280_humidity;BME280_pressure;Samples;Min_cycle;Max_cycle;Signal;HPM_P1;HPM_P2
2022/06/27 00:04:22;;;;;;;9.38;7.88;;;;;;;17.02;100.00;96461.50;10537523;28;20233;-58
2022/06/27 00:09:22;;;;;;;11.48;8.27;;;;;;;17.20;100.00;96450.28;10537039;28;20195;-58
2022/06/27 00:14:22;;;;;;;8.43;7.63;;;;;;;17.47;100.00;96446.59;10536814;28;20244;-57
2022/06/27 00:19:23;;;;;;;7.43;6.80;;;;;;;17.51;100.00;96433.72;10537065;28;20272;-57
2022/06/27 00:24:23;;;;;;;8.20;7.47;;;;;;;17.59;100.00;96436.16;10536225;28;20229;-57
2022/06/27 00:29:24;;;;;;;8.80;7.93;;;;;;;17.70;100.00;96440.00;10536653;28;20214;-55
2022/06/27 00:34:25;;;;;;;7.25;6.55;;;;;;;17.50;100.00;96455.13;10536131;28;20776;-58
2022/06/27 00:39:26;;;;;;;7.80;6.70;;;;;;;17.57;100.00;96455.94;10536001;28;20277;-54
2022/06/27 00:44:31;;;;;;;9.98;6.78;;;;;;;17.79;100.00;96446.72;10535798;28;20254;-59
2022/06/27 00:49:32;;;;;;;7.97;7.20;;;;;;;17.59;100.00;96435.34;10535749;28;20183;-61
2022/06/27 00:54:34;;;;;;;8.30;7.50;;;;;;;17.36;100.00;96444.56;10535920;28;20214;-58
2022/06/27 00:59:35;;;;;;;10.95;7.60;;;;;;;17.19;100.00;96440.72;10516821;28;20711;-56
2022/06/27 01:04:37;;;;;;;10.77;7.80;;;;;;;17.06;100.00;96438.88;10517417;28;20301;-56
2022/06/27 01:09:38;;;;;;;9.00;8.20;;;;;;;16.94;100.00;96442.13;10517333;28;20616;-56
2022/06/27 01:14:38;;;;;;;9.05;7.82;;;;;;;16.95;100.00;96437.66;10516956;28;20229;-58
2022/06/27 01:19:40;;;;;;;10.02;9.13;;;;;;;16.82;100.00;96446.38;10535401;28;20216;-55
2022/06/27 01:24:42;;;;;;;9.52;8.73;;;;;;;16.67;100.00;96449.19;10516656;28;20252;-58
2022/06/27 01:29:43;;;;;;;10.68;8.70;;;;;;;16.61;100.00;96457.13;10517135;28;20661;-59
2022/06/27 01:34:44;;;;;;;9.80;8.57;;;;;;;16.47;100.00;96451.00;10516565;28;20234;-55
2022/06/27 01:39:44;;;;;;;9.48;8.57;;;;;;;16.35;100.00;96441.00;10517593;28;20189;-57
2022/06/27 01:44:44;;;;;;;11.45;9.35;;;;;;;16.29;100.00;96452.38;10520188;28;20234;-54
2022/06/27 01:49:47;;;;;;;10.50;9.02;;;;;;;16.13;100.00;96444.81;10524323;28;20193;-54
2022/06/27 01:54:48;;;;;;;10.23;8.93;;;;;;;16.21;100.00;96449.91;10524581;28;20229;-55
2022/06/27 01:59:50;;;;;;;9.90;8.98;;;;;;;16.07;100.00;96435.84;10524029;28;20183;-56
2022/06/27 02:04:52;;;;;;;9.18;8.38;;;;;;;15.95;100.00;96448.00;10523907;28;20205;-56
2022/06/27 02:09:52;;;;;;;9.88;8.98;;;;;;;15.90;100.00;96447.78;10523828;28;20216;-54
2022/06/27 02:14:55;;;;;;;9.95;9.05;;;;;;;15.63;100.00;96455.53;10523490;28;20219;-58
2022/06/27 02:20:07;;;;;;;11.60;10.30;;;;;;;15.62;100.00;96454.72;10523551;28;20190;-58
2022/06/27 02:25:07;;;;;;;16.00;11.30;;;;;;;15.56;100.00;96455.50;10523023;28;20705;-60
2022/06/27 02:30:08;;;;;;;11.95;10.82;;;;;;;15.49;100.00;96459.91;10541057;28;20228;-58
2022/06/27 02:35:10;;;;;;;12.68;11.40;;;;;;;15.47;100.00;96456.66;10540968;28;20233;-57
2022/06/27 02:40:11;;;;;;;19.63;12.50;;;;;;;15.54;100.00;96456.69;10522147;28;20222;-57
2022/06/27 02:45:12;;;;;;;15.82;12.48;;;;;;;15.56;100.00;96460.78;10514640;23;20247;-56
2022/06/27 02:50:12;;;;;;;16.98;11.43;;;;;;;15.57;100.00;96451.81;10480674;28;20245;-55
2022/06/27 02:55:15;;;;;;;13.57;12.05;;;;;;;15.31;100.00;96447.19;10478575;28;20288;-58
2022/06/27 03:00:21;;;;;;;12.82;11.50;;;;;;;15.46;100.00;96445.28;10480154;28;20556;-57
2022/06/27 03:05:22;;;;;;;13.20;10.80;;;;;;;15.44;100.00;96441.22;10437814;28;20212;-57
2022/06/27 03:10:23;;;;;;;17.58;11.20;;;;;;;15.38;100.00;96439.34;10454806;28;20188;-58
2022/06/27 03:15:23;;;;;;;18.27;11.23;;;;;;;15.51;100.00;96464.00;10454884;28;20227;-53
2022/06/27 03:20:27;;;;;;;15.20;11.55;;;;;;;15.47;100.00;96456.66;10454314;28;20226;-53
2022/06/27 03:25:37;;;;;;;14.27;12.27;;;;;;;15.28;100.00;96463.41;10454470;28;20212;-51
2022/06/27 03:30:38;;;;;;;16.05;11.07;;;;;;;15.42;100.00;96459.88;10454116;28;20287;-55
2022/06/27 03:35:40;;;;;;;12.50;11.20;;;;;;;15.44;100.00;96462.34;10437337;28;20265;-55
2022/06/27 03:40:42;;;;;;;13.35;11.30;;;;;;;15.37;100.00;96469.38;10453643;28;20218;-59
2022/06/27 03:45:43;;;;;;;13.10;11.65;;;;;;;15.15;100.00;96480.78;10453277;28;20576;-59
2022/06/27 03:50:44;;;;;;;14.18;12.52;;;;;;;15.30;100.00;96480.72;10453337;28;20659;-58
2022/06/27 03:55:45;;;;;;;15.63;12.48;;;;;;;15.46;100.00;96470.88;10452903;28;20219;-59
2022/06/27 04:00:45;;;;;;;13.85;12.40;;;;;;;15.65;100.00;96475.47;10452711;28;20631;-53
2022/06/27 04:05:46;;;;;;;12.73;11.10;;;;;;;15.85;100.00;96470.31;10452538;28;20307;-53
2022/06/27 04:10:47;;;;;;;15.43;10.77;;;;;;;16.18;100.00;96461.69;10453615;28;20203;-57
2022/06/27 04:15:51;;;;;;;10.70;9.70;;;;;;;16.39;100.00;96459.94;10452223;28;20306;-56
2022/06/27 04:21:10;;;;;;;11.55;10.35;;;;;;;16.50;100.00;96455.91;10453320;28;20195;-58
2022/06/27 04:26:24;;;;;;;11.55;9.00;;;;;;;16.76;100.00;96442.69;10451961;28;20219;-58
2022/06/27 04:31:25;;;;;;;15.20;9.60;;;;;;;16.99;100.00;96451.31;10451872;28;20199;-57
2022/06/27 04:36:25;;;;;;;9.88;8.90;;;;;;;17.30;100.00;96450.66;10452646;28;20235;-51
2022/06/27 04:41:27;;;;;;;9.70;8.80;;;;;;;17.54;100.00;96443.91;10433948;28;20188;-55
2022/06/27 04:46:27;;;;;;;11.75;8.50;;;;;;;17.83;100.00;96442.59;10451050;28;20235;-51
2022/06/27 04:51:49;;;;;;;9.15;8.23;;;;;;;18.15;100.00;96431.31;10434729;28;20196;-53
2022/06/27 04:56:49;;;;;;;9.70;7.63;;;;;;;18.44;100.00;96423.81;10452113;28;20269;-56
2022/06/27 05:01:50;;;;;;;8.45;7.65;;;;;;;18.83;100.00;96420.06;10451562;28;20195;-57
2022/06/27 05:06:51;;;;;;;7.63;6.93;;;;;;;19.12;100.00;96425.78;10450453;28;20200;-51
2022/06/27 05:11:54;;;;;;;8.77;6.63;;;;;;;19.61;100.00;96425.94;10452137;28;20620;-57
2022/06/27 05:16:54;;;;;;;7.40;5.97;;;;;;;20.22;100.00;96405.59;10450347;28;20223;-56
2022/06/27 05:21:59;;;;;;;9.82;6.57;;;;;;;20.71;100.00;96420.72;10458438;28;20205;-51
2022/06/27 05:27:03;;;;;;;9.30;6.05;;;;;;;21.43;100.00;96414.41;10458869;28;20273;-57
2022/06/27 05:32:04;;;;;;;6.50;5.90;;;;;;;21.83;100.00;96425.13;10442144;28;20569;-59
2022/06/27 05:37:08;;;;;;;8.57;5.88;;;;;;;22.00;100.00;96411.06;10442092;28;20220;-53
2022/06/27 05:42:09;;;;;;;8.02;6.20;;;;;;;21.70;100.00;96407.53;10458887;28;20576;-52
2022/06/27 05:47:10;;;;;;;8.65;5.13;;;;;;;22.27;99.03;96401.44;10458119;28;20771;-55
2022/06/27 05:52:27;;;;;;;8.73;5.07;;;;;;;22.70;96.07;96382.47;10457867;28;20245;-55
2022/06/27 05:57:28;;;;;;;3.72;3.05;;;;;;;23.66;78.64;96328.81;10457935;28;20241;-56
2022/06/27 06:02:28;;;;;;;3.15;2.88;;;;;;;23.97;74.11;96320.34;10457597;28;20307;-56
2022/06/27 06:07:30;;;;;;;3.35;2.40;;;;;;;24.59;69.71;96304.88;10457234;28;20556;-53
2022/06/27 06:12:30;;;;;;;2.60;2.40;;;;;;;25.12;66.96;96286.19;10457410;28;20218;-55
2022/06/27 06:17:33;;;;;;;3.22;2.05;;;;;;;26.11;60.90;96220.00;10440040;28;20258;-57
2022/06/27 06:22:34;;;;;;;4.55;1.98;;;;;;;25.66;59.53;96199.25;10458571;28;20239;-58
2022/06/27 06:27:35;;;;;;;1.70;1.50;;;;;;;26.40;53.59;96120.06;10440251;28;20626;-56
2022/06/27 06:32:37;;;;;;;1.50;1.40;;;;;;;26.81;53.46;96146.03;10439710;28;20208;-52
2022/06/27 06:37:39;;;;;;;1.83;1.55;;;;;;;28.24;49.81;96112.03;10455630;28;21098;-60
2022/06/27 06:42:40;;;;;;;2.50;1.55;;;;;;;28.81;45.17;96017.06;10454637;28;20610;-53
2022/06/27 06:47:56;;;;;;;2.95;1.60;;;;;;;28.91;43.94;96006.13;10454396;28;20237;-52
2022/06/27 06:53:01;;;;;;;2.30;1.30;;;;;;;30.53;41.14;95995.81;10438793;28;20208;-57
2022/06/27 06:58:02;;;;;;;3.17;1.25;;;;;;;30.06;40.20;95967.03;10456715;28;20273;-55
2022/06/27 07:03:02;;;;;;;2.63;1.15;;;;;;;30.92;38.77;95979.00;10456329;28;20222;-59
2022/06/27 07:08:03;;;;;;;1.77;1.60;;;;;;;29.67;42.80;96053.84;10456714;28;20570;-57
2022/06/27 07:13:03;;;;;;;1.85;1.45;;;;;;;28.66;45.92;96117.81;10456479;28;20223;-53
2022/06/27 07:18:04;;;;;;;2.97;2.42;;;;;;;27.59;48.92;96121.16;10456414;28;20310;-56
2022/06/27 07:23:06;;;;;;;4.65;2.20;;;;;;;28.00;49.30;96162.34;10456179;28;20640;-53
2022/06/27 07:28:07;;;;;;;5.32;2.03;;;;;;;28.15;48.80;96137.97;10456155;28;20196;-58
2022/06/27 07:33:08;;;;;;;2.78;1.90;;;;;;;28.66;47.09;96096.25;10456505;28;20239;-53
2022/06/27 07:38:08;;;;;;;4.45;2.08;;;;;;;29.07;46.37;96073.34;10455199;28;20216;-57
2022/06/27 07:43:13;;;;;;;2.67;1.75;;;;;;;28.92;45.86;96058.19;10454324;28;20278;-53
2022/06/27 07:48:17;;;;;;;2.00;1.60;;;;;;;28.54;45.96;96050.00;10454036;28;20183;-53
2022/06/27 07:53:19;;;;;;;2.33;1.70;;;;;;;29.99;42.31;96003.63;10452924;28;21115;-52
2022/06/27 07:58:33;;;;;;;3.95;1.50;;;;;;;30.65;41.93;96035.88;10454566;28;20274;-59
2022/06/27 08:03:36;;;;;;;2.08;1.35;;;;;;;30.21;41.90;96021.84;10454032;28;20216;-59
2022/06/27 08:08:39;;;;;;;2.92;1.40;;;;;;;29.00;45.62;96090.69;10454111;28;20242;-57
2022/06/27 08:13:40;;;;;;;1.88;1.67;;;;;;;28.14;48.80;96149.81;10453764;28;20235;-59
2022/06/27 08:18:43;;;;;;;1.90;1.50;;;;;;;27.42;49.55;96150.34;10453460;28;20651;-60
2022/06/27 08:23:44;;;;;;;5.53;1.48;;;;;;;28.35;48.32;96157.72;10453766;28;20623;-54
2022/06/27 08:28:47;;;;;;;1.40;1.25;;;;;;;29.80;45.15;96128.72;10453088;28;20191;-52
2022/06/27 08:33:49;;;;;;;2.13;1.80;;;;;;;30.15;45.59;96163.53;10452951;28;20208;-53
2022/06/27 08:38:50;;;;;;;3.67;1.58;;;;;;;28.58;50.15;96228.91;10452821;28;20196;-52
2022/06/27 08:44:00;;;;;;;2.05;1.90;;;;;;;27.55;51.37;96237.69;10472901;23;20246;-60
2022/06/27 08:49:02;;;;;;;2.67;2.10;;;;;;;26.70;54.55;96276.94;10493137;28;20733;-60
2022/06/27 08:54:03;;;;;;;2.33;2.13;;;;;;;26.67;54.83;96286.34;10492667;28;20352;-59
2022/06/27 08:59:04;;;;;;;4.15;2.00;;;;;;;26.65;53.25;96239.31;10493899;28;20305;-61
2022/06/27 09:04:06;;;;;;;2.88;1.80;;;;;;;28.26;51.28;96235.66;10493462;28;20316;-53
2022/06/27 09:09:08;;;;;;;2.78;1.80;;;;;;;27.85;49.29;96184.78;10493778;28;20558;-54
2022/06/27 09:14:40;;;;;;;3.22;1.77;;;;;;;29.38;48.16;96211.34;10493367;28;20215;-58
2022/06/27 09:19:54;;;;;;;6.15;1.98;;;;;;;29.37;46.47;96171.94;10493655;28;20191;-58
2022/06/27 09:25:05;;;;;;;2.10;1.75;;;;;;;27.98;49.71;96197.63;10493228;28;20207;-54
2022/06/27 09:30:20;;;;;;;3.22;1.88;;;;;;;29.90;47.73;96207.97;10493340;28;20202;-56
2022/06/27 09:35:32;;;;;;;5.32;2.05;;;;;;;30.56;45.63;96170.94;10492920;28;20226;-59
2022/06/27 09:40:34;;;;;;;1.70;1.50;;;;;;;31.64;43.22;96153.34;10493025;28;20769;-59
2022/06/27 09:45:34;;;;;;;3.13;1.65;;;;;;;32.44;39.95;96095.84;10492462;28;20698;-58
2022/06/27 09:50:39;;;;;;;4.43;1.20;;;;;;;30.73;43.71;96124.38;10492981;28;20191;-59
2022/06/27 09:55:40;;;;;;;2.65;1.60;;;;;;;31.11;43.71;96143.13;10493132;28;20261;-58
2022/06/27 10:00:41;;;;;;;5.47;1.35;;;;;;;31.35;40.84;96064.38;10492440;28;20183;-58
2022/06/27 10:05:44;;;;;;;2.85;1.33;;;;;;;31.15;42.16;96092.72;10478141;28;20247;-53
2022/06/27 10:11:06;;;;;;;2.97;1.50;;;;;;;31.57;41.72;96093.38;10499662;28;20191;-58
2022/06/27 10:16:16;;;;;;;1.65;1.33;;;;;;;30.55;43.66;96110.69;10499693;28;20231;-59
2022/06/27 10:21:27;;;;;;;2.47;1.20;;;;;;;31.97;40.22;96082.66;10499588;28;20226;-53
2022/06/27 10:26:41;;;;;;;1.30;1.17;;;;;;;31.78;39.90;96079.38;10499383;28;20207;-54
2022/06/27 10:31:45;;;;;;;2.28;1.20;;;;;;;32.69;38.42;96055.56;10499164;28;20195;-56
2022/06/27 10:36:45;;;;;;;1.77;1.02;;;;;;;32.03;37.74;96012.88;10499143;28;20227;-53
2022/06/27 10:41:46;;;;;;;2.20;1.20;;;;;;;31.33;39.88;96052.25;10498904;28;20200;-55
2022/06/27 10:46:46;;;;;;;2.03;1.07;;;;;;;32.02;40.70;96111.53;10497960;28;20493;-57
2022/06/27 10:51:47;;;;;;;5.07;1.40;;;;;;;31.26;40.71;96064.31;10498608;28;20433;-52
2022/06/27 10:56:51;;;;;;;2.42;1.55;;;;;;;31.08;42.93;96127.50;10497939;28;20245;-56
2022/06/27 11:01:52;;;;;;;3.97;1.20;;;;;;;31.94;40.03;96087.91;10498502;28;20278;-55
2022/06/27 11:07:00;;;;;;;2.53;1.17;;;;;;;31.32;41.02;96091.25;10497598;28;20218;-52
2022/06/27 11:12:01;;;;;;;1.90;1.30;;;;;;;32.60;39.18;96084.56;10497821;28;20274;-56
2022/06/27 11:17:01;;;;;;;2.80;1.35;;;;;;;31.79;40.55;96079.06;10496529;28;20768;-53
2022/06/27 11:22:02;;;;;;;1.93;1.60;;;;;;;32.66;39.81;96089.53;10497075;28;20219;-58
2022/06/27 11:27:03;;;;;;;3.55;1.60;;;;;;;31.88;41.29;96087.22;10479554;28;20449;-53
2022/06/27 11:32:09;;;;;;;1.98;1.58;;;;;;;32.35;40.83;96103.91;10478682;28;20565;-58
2022/06/27 11:37:17;;;;;;;3.53;1.55;;;;;;;33.07;39.68;96104.63;10496631;28;20226;-59
2022/06/27 11:42:17;;;;;;;1.52;1.42;;;;;;;31.90;40.42;96071.47;10496690;28;20222;-58
2022/06/27 11:47:25;;;;;;;6.73;1.87;;;;;;;31.95;43.47;96155.31;10495425;28;20875;-60
2022/06/27 11:52:34;;;;;;;5.28;2.22;;;;;;;32.71;41.17;96134.72;10496151;28;20429;-57
2022/06/27 11:57:35;;;;;;;2.47;2.03;;;;;;;32.61;42.30;96152.03;10495413;28;20219;-59
2022/06/27 12:02:37;;;;;;;2.30;1.95;;;;;;;31.59;44.12;96145.31;10495748;28;20195;-57
2022/06/27 12:08:01;;;;;;;2.72;2.05;;;;;;;32.54;41.92;96146.25;10494898;28;20736;-58
2022/06/27 12:13:06;;;;;;;2.80;2.60;;;;;;;30.74;45.18;96159.25;10495144;28;20195;-58
2022/06/27 12:18:07;;;;;;;5.80;2.08;;;;;;;32.06;43.92;96190.31;10494483;28;20690;-60
2022/06/27 12:23:07;;;;;;;4.47;2.17;;;;;;;30.91;44.88;96153.22;10494986;28;20187;-58
2022/06/27 12:28:09;;;;;;;4.78;2.53;;;;;;;31.76;43.84;96174.47;10471338;28;20284;-59
2022/06/27 12:33:09;;;;;;;2.97;2.30;;;;;;;31.33;44.95;96174.06;10453209;28;20687;-58
2022/06/27 12:38:10;;;;;;;3.53;2.63;;;;;;;32.07;44.33;96191.88;10452968;28;20368;-59
2022/06/27 12:43:10;;;;;;;9.05;2.53;;;;;;;32.82;42.71;96190.31;10452464;28;20215;-57
2022/06/27 12:48:11;;;;;;;5.33;2.60;;;;;;;32.07;44.08;96190.00;10452283;28;20341;-60
2022/06/27 12:53:11;;;;;;;9.10;2.80;;;;;;;31.63;46.84;96238.41;10452425;28;20466;-58
2022/06/27 12:58:12;;;;;;;3.77;2.90;;;;;;;32.05;45.47;96232.06;10452379;28;20543;-56
2022/06/27 13:03:12;;;;;;;4.90;2.40;;;;;;;32.34;45.63;96226.22;10452303;28;20454;-58
2022/06/27 13:08:13;;;;;;;3.25;2.25;;;;;;;33.50;43.44;96219.88;10451828;28;20183;-59
2022/06/27 13:13:13;;;;;;;3.17;2.43;;;;;;;32.67;43.23;96185.28;10452190;28;20275;-57
2022/06/27 13:18:13;;;;;;;8.23;3.03;;;;;;;33.22;43.59;96197.66;10452485;28;20482;-60
2022/06/27 13:23:14;;;;;;;3.88;2.65;;;;;;;33.74;42.52;96205.09;10451063;28;20460;-59
2022/06/27 13:28:15;;;;;;;5.43;2.72;;;;;;;33.10;44.43;96217.22;10452270;28;20180;-59
2022/06/27 13:33:15;;;;;;;4.95;2.80;;;;;;;32.17;45.06;96159.94;10452225;28;20215;-60
2022/06/27 13:38:16;;;;;;;9.40;2.60;;;;;;;34.43;42.04;96158.00;10452222;28;20219;-59
2022/06/27 13:43:16;;;;;;;5.03;2.67;;;;;;;32.87;43.98;96143.22;10459701;28;20484;-55
2022/06/27 13:48:16;;;;;;;5.38;2.90;;;;;;;32.09;45.38;96162.59;10459597;28;20278;-58
2022/06/27 13:53:17;;;;;;;7.53;2.93;;;;;;;30.53;47.98;96204.78;10459961;28;20223;-58
2022/06/27 13:58:17;;;;;;;4.37;2.40;;;;;;;30.57;48.60;96202.28;10459459;28;20478;-59
2022/06/27 14:03:18;;;;;;;3.60;2.80;;;;;;;30.26;50.32;96246.00;10459528;28;20457;-56
2022/06/27 14:08:18;;;;;;;6.32;2.80;;;;;;;30.00;50.73;96237.50;10459086;28;20230;-56
2022/06/27 14:13:18;;;;;;;5.93;3.00;;;;;;;30.04;50.86;96238.53;10459179;28;20686;-59
2022/06/27 14:18:19;;;;;;;5.50;2.57;;;;;;;30.15;50.81;96277.00;10459136;28;21037;-55
2022/06/27 14:23:19;;;;;;;4.53;2.97;;;;;;;30.02;51.16;96279.34;10458602;28;20458;-58
2022/06/27 14:28:19;;;;;;;11.63;2.93;;;;;;;29.54;52.74;96284.81;10458733;28;20442;-56
2022/06/27 14:33:20;;;;;;;5.23;3.00;;;;;;;28.90;54.50;96325.41;10458243;28;20509;-56
2022/06/27 14:38:20;;;;;;;22.30;4.47;;;;;;;28.38;66.12;96492.06;10458267;28;20478;-58
2022/06/27 14:43:20;;;;;;;11.70;4.57;;;;;;;25.14;87.11;96472.50;10458121;28;20488;-56
2022/06/27 14:48:21;;;;;;;13.43;6.28;;;;;;;22.71;100.00;96470.34;10477746;23;20565;-55
2022/06/27 14:53:23;;;;;;;11.52;6.90;;;;;;;21.61;100.00;96456.09;10457468;28;20191;-52
2022/06/27 14:58:23;;;;;;;18.58;8.82;;;;;;;21.23;100.00;96436.88;10456868;28;20362;-55
2022/06/27 15:03:24;;;;;;;20.83;10.50;;;;;;;21.06;100.00;96486.50;10457332;28;20623;-59
2022/06/27 15:08:24;;;;;;;13.52;9.25;;;;;;;20.77;100.00;96435.78;10457038;28;20267;-59
2022/06/27 15:13:24;;;;;;;14.65;9.75;;;;;;;20.46;100.00;96451.72;10456496;28;20199;-60
2022/06/27 15:18:25;;;;;;;13.65;9.00;;;;;;;20.40;100.00;96495.19;10456636;28;20366;-59
2022/06/27 15:23:26;;;;;;;10.95;8.27;;;;;;;20.27;100.00;96490.84;10456174;28;20199;-59
2022/06/27 15:28:26;;;;;;;12.95;7.40;;;;;;;20.16;100.00;96472.19;10456185;28;20692;-58
2022/06/27 15:33:26;;;;;;;24.67;9.52;;;;;;;20.21;100.00;96475.78;10456013;28;20204;-59
2022/06/27 15:38:27;;;;;;;16.13;9.45;;;;;;;20.09;100.00;96458.94;10455669;28;20327;-59
2022/06/27 15:43:27;;;;;;;19.23;11.18;;;;;;;20.03;100.00;96459.84;10455788;28;20204;-57
2022/06/27 15:48:27;;;;;;;17.40;10.85;;;;;;;20.05;100.00;96471.09;10455123;28;20448;-57
2022/06/27 15:53:30;;;;;;;17.67;10.52;;;;;;;20.09;100.00;96478.41;10455109;28;20203;-57
2022/06/27 15:58:30;;;;;;;21.23;12.20;;;;;;;20.07;100.00;96484.97;10454831;28;20216;-56
2022/06/27 16:03:31;;;;;;;21.73;10.70;;;;;;;20.10;100.00;96481.84;10454224;28;20195;-56
2022/06/27 16:08:32;;;;;;;10.23;8.02;;;;;;;20.13;100.00;96484.06;10454586;28;20195;-54
2022/06/27 16:13:32;;;;;;;12.20;8.75;;;;;;;20.27;100.00;96474.06;10454287;28;20187;-53
2022/06/27 16:18:32;;;;;;;13.27;8.02;;;;;;;20.22;100.00;96458.78;10454144;28;20212;-51
2022/06/27 16:23:34;;;;;;;14.25;8.40;;;;;;;20.19;100.00;96445.13;10454050;28;20314;-50
2022/06/27 16:28:35;;;;;;;14.88;8.95;;;;;;;20.33;100.00;96477.69;10453725;28;20662;-56
2022/06/27 16:33:35;;;;;;;12.70;8.07;;;;;;;20.57;100.00;96486.59;10453699;28;20192;-56
2022/06/27 16:38:35;;;;;;;11.55;7.10;;;;;;;20.55;100.00;96488.66;10451582;28;20219;-50
2022/06/27 16:43:36;;;;;;;11.20;6.30;;;;;;;20.87;100.00;96473.28;10452419;28;20572;-57
2022/06/27 16:48:36;;;;;;;8.80;6.00;;;;;;;21.30;100.00;96469.53;10453187;28;20199;-53
2022/06/27 16:53:40;;;;;;;12.40;6.05;;;;;;;21.45;100.00;96460.28;10452902;28;20200;-56
2022/06/27 16:58:40;;;;;;;9.95;6.03;;;;;;;21.71;100.00;96467.81;10452732;28;20566;-56
2022/06/27 17:03:41;;;;;;;9.98;4.45;;;;;;;21.95;100.00;96472.31;10452706;28;20195;-49
2022/06/27 17:08:41;;;;;;;11.45;5.28;;;;;;;22.20;100.00;96474.69;10452292;28;20227;-56
2022/06/27 17:13:43;;;;;;;9.30;5.50;;;;;;;22.59;100.00;96480.28;10451815;28;20188;-57
2022/06/27 17:18:43;;;;;;;6.70;4.85;;;;;;;22.90;100.00;96486.97;10452366;28;20216;-56
2022/06/27 17:23:44;;;;;;;7.70;4.95;;;;;;;22.69;100.00;96482.31;10452296;28;20188;-57
2022/06/27 17:28:44;;;;;;;7.30;4.43;;;;;;;22.87;100.00;96465.28;10452373;28;20528;-57
2022/06/27 17:33:44;;;;;;;5.53;4.57;;;;;;;23.11;100.00;96480.16;10451889;28;20677;-55
2022/06/27 17:38:45;;;;;;;8.45;4.90;;;;;;;23.00;100.00;96470.28;10452276;28;20732;-56
2022/06/27 17:43:45;;;;;;;6.18;4.57;;;;;;;23.29;100.00;96470.25;10451173;28;20651;-57
2022/06/27 17:48:46;;;;;;;9.35;5.20;;;;;;;22.71;100.00;96485.56;10451902;28;20180;-54
2022/06/27 17:53:46;;;;;;;10.23;4.15;;;;;;;23.05;100.00;96488.28;10451795;28;20204;-53
2022/06/27 17:58:46;;;;;;;6.18;4.57;;;;;;;23.02;100.00;96486.91;10451345;28;20230;-53
2022/06/27 18:03:47;;;;;;;9.00;4.53;;;;;;;22.90;100.00;96507.53;10451538;28;20690;-52
2022/06/27 18:08:48;;;;;;;9.10;4.45;;;;;;;23.24;100.00;96521.75;10451353;28;20666;-54
2022/06/27 18:13:48;;;;;;;6.70;4.10;;;;;;;23.37;100.00;96530.53;10451272;28;20246;-52
2022/06/27 18:18:49;;;;;;;7.82;4.63;;;;;;;22.98;100.00;96525.84;10451035;28;20220;-53
2022/06/27 18:23:50;;;;;;;6.15;4.60;;;;;;;22.34;100.00;96536.63;10451096;28;20212;-54
2022/06/27 18:28:50;;;;;;;7.75;3.83;;;;;;;21.84;100.00;96561.97;10457790;28;20259;-50
2022/06/27 18:33:50;;;;;;;8.88;4.88;;;;;;;21.76;100.00;96578.28;10457904;28;20246;-52
2022/06/27 18:38:53;;;;;;;9.55;5.43;;;;;;;21.50;100.00;96588.34;10457982;28;20223;-51
2022/06/27 18:43:54;;;;;;;6.20;5.57;;;;;;;21.46;100.00;96606.63;10457876;28;20306;-55
2022/06/27 18:48:54;;;;;;;10.13;5.28;;;;;;;21.25;100.00;96625.81;10457676;28;20184;-52
2022/06/27 18:53:55;;;;;;;16.15;5.72;;;;;;;21.07;100.00;96645.31;10457533;28;20212;-51
2022/06/27 18:58:55;;;;;;;9.27;5.53;;;;;;;21.02;100.00;96646.78;10457284;28;20226;-50
2022/06/27 19:03:55;;;;;;;7.55;5.32;;;;;;;20.89;100.00;96646.13;10456908;28;20243;-51
2022/06/27 19:08:56;;;;;;;11.10;6.35;;;;;;;20.92;100.00;96641.19;10456825;28;20183;-56
2022/06/27 19:13:56;;;;;;;6.75;6.10;;;;;;;20.88;100.00;96644.53;10456664;28;20299;-58
2022/06/27 19:18:56;;;;;;;10.77;6.13;;;;;;;20.73;100.00;96652.88;10456474;28;20224;-59
2022/06/27 19:23:57;;;;;;;10.07;6.18;;;;;;;20.68;100.00;96656.22;10455903;28;20226;-52
2022/06/27 19:28:57;;;;;;;11.77;5.93;;;;;;;20.62;100.00;96671.19;10456074;28;20204;-57
2022/06/27 19:33:58;;;;;;;7.55;5.18;;;;;;;20.15;100.00;96665.50;10455726;28;20709;-52
2022/06/27 19:38:58;;;;;;;13.88;6.35;;;;;;;19.97;100.00;96671.63;10454734;28;20583;-57
2022/06/27 19:43:59;;;;;;;10.02;7.32;;;;;;;19.65;100.00;96678.75;10455496;28;20240;-50
2022/06/27 19:48:59;;;;;;;9.25;8.18;;;;;;;19.42;100.00;96685.47;10455251;28;20188;-57
2022/06/27 19:53:59;;;;;;;15.20;7.57;;;;;;;19.30;100.00;96685.31;10455266;28;20208;-51
2022/06/27 19:59:00;;;;;;;8.60;7.70;;;;;;;19.18;100.00;96685.16;10454837;28;20265;-55
2022/06/27 20:04:00;;;;;;;11.40;8.00;;;;;;;19.00;100.00;96696.47;10454546;28;20747;-50
2022/06/27 20:09:02;;;;;;;11.38;7.90;;;;;;;18.94;100.00;96704.47;10454874;28;20211;-53
2022/06/27 20:14:03;;;;;;;8.43;7.63;;;;;;;18.87;100.00;96700.00;10454035;28;20208;-53
2022/06/27 20:19:03;;;;;;;8.95;7.35;;;;;;;18.82;100.00;96694.47;10454463;28;20192;-50
2022/06/27 20:24:04;;;;;;;8.32;6.20;;;;;;;18.65;100.00;96661.44;10454007;28;20216;-51
2022/06/27 20:29:04;;;;;;;6.72;4.63;;;;;;;18.82;100.00;96657.31;10453861;28;20192;-51
2022/06/27 20:34:04;;;;;;;6.78;5.22;;;;;;;19.04;100.00;96633.16;10453441;28;20215;-52
2022/06/27 20:39:05;;;;;;;7.82;4.97;;;;;;;18.95;100.00;96634.44;10453315;28;20199;-51
2022/06/27 20:44:05;;;;;;;9.15;4.93;;;;;;;18.75;100.00;96637.94;10453509;28;20266;-52
2022/06/27 20:49:06;;;;;;;6.85;5.13;;;;;;;18.62;100.00;96669.81;10453131;28;20564;-53
2022/06/27 20:54:06;;;;;;;8.65;5.75;;;;;;;18.22;100.00;96715.00;10453067;28;20216;-50
2022/06/27 20:59:08;;;;;;;7.65;6.20;;;;;;;18.20;100.00;96743.56;10452881;28;20258;-51
2022/06/27 21:04:08;;;;;;;8.45;6.35;;;;;;;18.15;100.00;96768.84;10452637;28;20212;-51
2022/06/27 21:14:32;;;;;;;10.32;7.10;;;;;;;18.10;100.00;96794.31;10452494;28;20231;-55
2022/06/27 21:19:34;;;;;;;10.65;6.68;;;;;;;18.04;100.00;96816.34;10452709;28;20180;-58
2022/06/27 21:24:35;;;;;;;13.02;6.57;;;;;;;17.96;100.00;96827.94;10452489;28;20203;-56
2022/06/27 21:29:37;;;;;;;9.90;5.07;;;;;;;18.23;100.00;96801.47;10452164;28;20666;-52
2022/06/27 21:34:38;;;;;;;7.78;5.40;;;;;;;18.97;100.00;96802.28;10452004;28;20258;-55
2022/06/27 21:39:38;;;;;;;8.25;5.20;;;;;;;19.36;100.00;96809.31;10452038;28;20708;-53
2022/06/27 21:44:39;;;;;;;9.00;4.75;;;;;;;19.61;100.00;96796.13;10451839;28;20235;-54
2022/06/27 21:49:39;;;;;;;6.47;4.60;;;;;;;19.73;100.00;96793.63;10451967;28;20188;-55
2022/06/27 21:54:39;;;;;;;7.20;4.20;;;;;;;19.77;100.00;96780.75;10451658;28;20311;-53
2022/06/27 21:59:40;;;;;;;4.65;4.20;;;;;;;19.73;100.00;96784.84;10452081;28;20199;-55
2022/06/27 22:04:40;;;;;;;11.20;4.72;;;;;;;19.88;100.00;96798.69;10459670;28;20199;-56
2022/06/27 22:09:45;;;;;;;8.45;4.72;;;;;;;19.94;100.00;96805.81;10459677;28;20192;-56
2022/06/27 22:14:45;;;;;;;4.95;4.45;;;;;;;20.09;100.00;96813.50;10459028;28;20298;-53
2022/06/27 22:19:46;;;;;;;4.70;3.97;;;;;;;20.20;100.00;96792.53;10459051;28;20250;-51
2022/06/27 22:24:46;;;;;;;7.00;4.60;;;;;;;19.88;100.00;96822.63;10458901;28;20215;-52
2022/06/27 22:29:47;;;;;;;6.00;4.35;;;;;;;19.96;100.00;96816.22;10458109;28;20195;-55
2022/06/27 22:34:47;;;;;;;5.82;4.10;;;;;;;19.93;100.00;96824.63;10458326;28;20238;-52
2022/06/27 22:39:48;;;;;;;7.45;4.28;;;;;;;20.00;100.00;96825.41;10458082;28;20694;-53
2022/06/27 22:44:48;;;;;;;8.98;4.70;;;;;;;20.16;100.00;96850.69;10457843;28;20257;-51
2022/06/27 22:49:48;;;;;;;6.88;4.45;;;;;;;20.19;100.00;96858.22;10457905;28;20214;-51
2022/06/27 22:54:49;;;;;;;6.22;4.85;;;;;;;20.04;100.00;96873.66;10457256;28;20600;-51
2022/06/27 22:59:50;;;;;;;7.50;5.15;;;;;;;19.62;100.00;96892.63;10457593;28;20264;-51
2022/06/27 23:04:50;;;;;;;9.98;6.32;;;;;;;19.28;100.00;96902.53;10457432;28;20582;-58
2022/06/27 23:09:50;;;;;;;7.72;6.18;;;;;;;19.00;100.00;96938.06;10457203;28;20602;-60
2022/06/27 23:14:51;;;;;;;10.52;7.20;;;;;;;18.47;100.00;96980.47;10455585;28;20254;-60